Time;durP1;ratioP1;P1;durP2;ratioP2;P2;SDS_P1;SDS_P2;PMS_P1;PMS_P2;Temp;Humidity;BMP_temperature;BMP_pressure;BME280_temperature;BME280_humidity;BME280_pressure;Samples;Min_cycle;Max_cycle;Signal;HPM_P1;HPM_P2
2022/01/03 00:02:16;;;;;;;13.02;8.80;;;;;;;;;;5098931;28;20027;-51
2022/01/03 00:04:43;;;;;;;13.30;8.98;;;;;;;;;;5106964;28;20524;-51
2022/01/03 00:07:10;;;;;;;16.00;8.43;;;;;;;;;;5106341;28;20031;-51
2022/01/03 00:09:37;;;;;;;15.43;8.88;;;;;;;;;;5108090;28;20054;-50
2022/01/03 00:12:03;;;;;;;14.73;8.93;;;;;;;;;;5087411;28;20032;-51
2022/01/03 00:14:31;;;;;;;11.98;7.32;;;;;;;;;;5088827;28;20031;-50
2022/01/03 00:16:57;;;;;;;11.38;7.10;;;;;;;;;;5088533;28;20078;-51
2022/01/03 00:19:23;;;;;;;9.30;6.82;;;;;;;;;;5087286;28;20028;-51
2022/01/03 00:21:52;;;;;;;8.80;6.07;;;;;;;;;;5088628;28;20625;-52
2022/01/03 00:24:24;;;;;;;8.85;5.90;;;;;;;;;;5086740;28;20016;-51
2022/01/03 00:26:56;;;;;;;8.65;5.72;;;;;;;;;;5088235;28;20069;-51
2022/01/03 00:29:23;;;;;;;7.30;5.53;;;;;;;;;;5084365;28;20032;-51
2022/01/03 00:31:49;;;;;;;8.05;5.47;;;;;;;;;;5105369;28;20038;-51
2022/01/03 00:34:16;;;;;;;7.88;5.50;;;;;;;;;;5109560;28;20123;-51
2022/01/03 00:36:45;;;;;;;9.75;6.05;;;;;;;;;;5108678;28;20035;-50
2022/01/03 00:39:13;;;;;;;8.40;5.45;;;;;;;;;;5108615;28;20020;-49
2022/01/03 00:41:40;;;;;;;8.85;5.63;;;;;;;;;;5091445;28;20638;-50
2022/01/03 00:44:07;;;;;;;7.05;4.82;;;;;;;;;;5087506;28;20054;-50
2022/01/03 00:46:34;;;;;;;7.45;5.00;;;;;;;;;;5086148;28;20655;-51
2022/01/03 00:49:00;;;;;;;8.27;5.47;;;;;;;;;;5088041;28;20123;-51
2022/01/03 00:51:27;;;;;;;7.93;5.20;;;;;;;;;;5087926;28;20020;-51
2022/01/03 00:53:53;;;;;;;8.32;5.47;;;;;;;;;;5087958;28;20035;-52
2022/01/03 00:56:25;;;;;;;8.45;5.63;;;;;;;;;;5088220;28;20028;-50
2022/01/03 00:58:54;;;;;;;7.90;5.47;;;;;;;;;;5087964;28;20024;-49
2022/01/03 01:01:22;;;;;;;7.00;5.25;;;;;;;;;;5087617;28;20038;-52
2022/01/03 01:03:49;;;;;;;8.00;5.32;;;;;;;;;;5088601;28;20098;-52
2022/01/03 01:06:15;;;;;;;9.32;5.85;;;;;;;;;;5086703;28;20140;-49
2022/01/03 01:08:42;;;;;;;8.18;4.97;;;;;;;;;;5087049;28;20115;-51
2022/01/03 01:11:08;;;;;;;8.45;5.22;;;;;;;;;;5087364;28;20135;-50
2022/01/03 01:13:36;;;;;;;9.38;6.13;;;;;;;;;;5087574;28;20028;-51
2022/01/03 01:16:06;;;;;;;8.10;5.32;;;;;;;;;;5070113;28;20030;-52
2022/01/03 01:18:36;;;;;;;9.68;6.22;;;;;;;;;;5107618;28;20104;-49
2022/01/03 01:21:03;;;;;;;7.43;5.63;;;;;;;;;;5089523;28;20114;-52
2022/01/03 01:23:29;;;;;;;9.65;5.88;;;;;;;;;;5107659;28;20494;-51
2022/01/03 01:28:40;;;;;;;;;;;;;;;;;;5087416;28;20121;-49
2022/01/03 01:31:07;;;;;;;9.25;6.00;;;;;;;;;;5086069;28;20386;-51
2022/01/03 01:33:35;;;;;;;8.60;5.70;;;;;;;;;;5087116;28;20028;-51
2022/01/03 01:36:02;;;;;;;8.05;5.63;;;;;;;;;;5095854;28;20106;-53
2022/01/03 01:38:33;;;;;;;8.10;5.30;;;;;;;;;;5107266;28;20030;-50
2022/01/03 01:41:00;;;;;;;8.90;5.72;;;;;;;;;;5100059;28;20027;-48
2022/01/03 01:43:37;;;;;;;8.95;5.85;;;;;;;;;;5086919;28;20028;-51
2022/01/03 01:46:09;;;;;;;6.85;4.93;;;;;;;;;;5094786;28;20546;-49
2022/01/03 01:48:37;;;;;;;6.82;4.72;;;;;;;;;;5107383;28;20043;-52
2022/01/03 01:51:04;;;;;;;7.25;4.90;;;;;;;;;;5107375;28;20098;-52
2022/01/03 01:53:30;;;;;;;7.35;4.93;;;;;;;;;;5107230;28;20035;-51
2022/01/03 01:55:57;;;;;;;7.95;5.18;;;;;;;;;;5104418;28;20027;-49
2022/01/03 01:58:29;;;;;;;6.65;4.60;;;;;;;;;;5104761;28;20024;-51
2022/01/03 02:01:00;;;;;;;8.43;5.10;;;;;;;;;;5107075;28;20026;-51
2022/01/03 02:03:36;;;;;;;7.85;5.22;;;;;;;;;;5107091;28;20407;-50
2022/01/03 02:06:19;;;;;;;6.68;5.07;;;;;;;;;;5104112;28;20023;-52
2022/01/03 02:08:48;;;;;;;9.02;5.10;;;;;;;;;;5107515;28;20040;-52
2022/01/03 02:11:27;;;;;;;7.97;5.50;;;;;;;;;;5097928;28;20051;-49
2022/01/03 02:13:53;;;;;;;7.82;5.15;;;;;;;;;;5085540;28;20028;-52
2022/01/03 02:16:20;;;;;;;9.70;5.47;;;;;;;;;;5090652;28;20035;-50
2022/01/03 02:18:46;;;;;;;7.82;5.57;;;;;;;;;;5107442;28;20032;-48
2022/01/03 02:21:12;;;;;;;7.82;5.15;;;;;;;;;;5107146;28;20398;-49
2022/01/03 02:23:38;;;;;;;8.73;5.18;;;;;;;;;;5106936;28;20028;-50
2022/01/03 02:26:04;;;;;;;7.70;5.68;;;;;;;;;;5101030;28;20096;-49
2022/01/03 02:28:30;;;;;;;8.85;5.80;;;;;;;;;;5106479;28;20090;-49
2022/01/03 02:30:56;;;;;;;8.90;5.70;;;;;;;;;;5106643;28;20109;-51
2022/01/03 02:33:22;;;;;;;8.43;5.35;;;;;;;;;;5088003;28;20508;-48
2022/01/03 02:35:48;;;;;;;7.97;5.20;;;;;;;;;;5101975;28;20027;-53
2022/01/03 02:38:15;;;;;;;6.72;4.60;;;;;;;;;;5107287;28;20031;-48
2022/01/03 02:40:41;;;;;;;6.60;4.70;;;;;;;;;;5101794;28;20438;-48
2022/01/03 02:43:07;;;;;;;7.47;5.53;;;;;;;;;;5068305;28;20063;-47
2022/01/03 02:45:33;;;;;;;7.68;5.40;;;;;;;;;;5085881;28;20107;-49
2022/01/03 02:48:01;;;;;;;7.68;4.88;;;;;;;;;;5104972;28;20031;-48
2022/01/03 02:50:28;;;;;;;7.85;5.15;;;;;;;;;;5106387;28;20023;-49
2022/01/03 02:52:55;;;;;;;8.10;5.20;;;;;;;;;;5106691;28;20471;-48
2022/01/03 02:55:21;;;;;;;7.93;4.70;;;;;;;;;;5104260;28;20023;-48
2022/01/03 02:57:52;;;;;;;7.65;4.82;;;;;;;;;;5102907;28;20023;-48
2022/01/03 03:00:23;;;;;;;8.25;5.15;;;;;;;;;;5106643;28;20019;-52
2022/01/03 03:02:49;;;;;;;7.22;4.72;;;;;;;;;;5106664;28;20035;-48
2022/01/03 03:05:16;;;;;;;8.23;5.22;;;;;;;;;;5107185;28;20716;-50
2022/01/03 03:07:43;;;;;;;6.10;4.38;;;;;;;;;;5106735;28;20043;-47
2022/01/03 03:10:13;;;;;;;7.38;4.72;;;;;;;;;;5110488;28;20030;-47
2022/01/03 03:12:39;;;;;;;7.55;5.05;;;;;;;;;;5069610;28;20028;-48
2022/01/03 03:15:07;;;;;;;11.60;6.57;;;;;;;;;;5103268;28;20805;-50
2022/01/03 03:17:33;;;;;;;13.10;6.53;;;;;;;;;;5088553;28;20028;-48
2022/01/03 03:20:01;;;;;;;11.20;6.63;;;;;;;;;;5089618;28;20449;-48
2022/01/03 03:22:28;;;;;;;9.05;5.82;;;;;;;;;;5088842;28;20025;-48
2022/01/03 03:25:09;;;;;;;8.35;5.53;;;;;;;;;;5109373;28;20019;-48
2022/01/03 03:27:42;;;;;;;8.15;5.40;;;;;;;;;;5102104;28;20529;-48
2022/01/03 03:30:09;;;;;;;8.00;5.18;;;;;;;;;;5103116;28;20036;-48
2022/01/03 03:32:35;;;;;;;7.65;4.55;;;;;;;;;;5089309;28;20049;-48
2022/01/03 03:35:01;;;;;;;6.70;4.30;;;;;;;;;;5089657;28;20028;-48
2022/01/03 03:37:27;;;;;;;6.78;4.38;;;;;;;;;;5080003;28;20043;-47
2022/01/03 03:39:53;;;;;;;6.70;4.30;;;;;;;;;;5110256;28;20343;-48
2022/01/03 03:42:19;;;;;;;6.70;4.25;;;;;;;;;;5090680;28;20028;-48
2022/01/03 03:44:46;;;;;;;6.70;4.20;;;;;;;;;;5089911;28;20027;-49
2022/01/03 03:47:12;;;;;;;6.60;4.20;;;;;;;;;;5096019;28;20069;-49
2022/01/03 03:49:38;;;;;;;5.90;4.45;;;;;;;;;;5092635;28;20063;-49
2022/01/03 03:52:04;;;;;;;7.70;4.93;;;;;;;;;;5089445;28;20077;-48
2022/01/03 03:54:32;;;;;;;7.13;4.50;;;;;;;;;;5089137;28;20020;-48
2022/01/03 03:56:59;;;;;;;8.05;4.95;;;;;;;;;;5092671;28;20031;-48
2022/01/03 03:59:25;;;;;;;7.55;4.88;;;;;;;;;;5109009;28;20145;-47
2022/01/03 04:01:52;;;;;;;6.22;4.57;;;;;;;;;;5109586;28;20035;-48
2022/01/03 04:04:18;;;;;;;7.10;4.65;;;;;;;;;;5109870;28;20031;-52
2022/01/03 04:06:44;;;;;;;7.60;4.75;;;;;;;;;;5098523;28;20138;-50
2022/01/03 04:09:10;;;;;;;8.27;5.13;;;;;;;;;;5090464;28;20675;-48
2022/01/03 04:11:36;;;;;;;7.13;4.63;;;;;;;;;;5088341;28;20032;-49
2022/01/03 04:14:02;;;;;;;6.85;4.65;;;;;;;;;;5091551;28;20395;-48
2022/01/03 04:16:28;;;;;;;7.25;4.82;;;;;;;;;;5087875;28;20101;-48
2022/01/03 04:18:54;;;;;;;6.68;4.60;;;;;;;;;;5107700;28;20023;-47
2022/01/03 04:21:21;;;;;;;6.65;4.53;;;;;;;;;;5109130;28;20024;-47
2022/01/03 04:23:47;;;;;;;6.80;4.38;;;;;;;;;;5109792;28;20016;-48
2022/01/03 04:26:13;;;;;;;6.88;4.55;;;;;;;;;;5088680;28;20519;-48
2022/01/03 04:28:39;;;;;;;7.28;4.57;;;;;;;;;;5085852;28;20043;-48
2022/01/03 04:31:06;;;;;;;7.75;4.90;;;;;;;;;;5088381;28;20050;-47
2022/01/03 04:33:32;;;;;;;6.13;4.50;;;;;;;;;;5088806;28;20542;-48
2022/01/03 04:35:59;;;;;;;7.47;4.80;;;;;;;;;;5084073;28;20040;-49
2022/01/03 04:38:25;;;;;;;7.13;4.75;;;;;;;;;;5089097;28;20036;-48
2022/01/03 04:40:51;;;;;;;7.00;4.63;;;;;;;;;;5088273;28;20044;-51
2022/01/03 04:43:18;;;;;;;7.70;5.10;;;;;;;;;;5089204;28;20445;-50
2022/01/03 04:45:44;;;;;;;6.97;4.85;;;;;;;;;;5089338;28;20483;-51
2022/01/03 04:48:10;;;;;;;8.45;5.22;;;;;;;;;;5087134;28;20028;-50
2022/01/03 04:50:37;;;;;;;7.60;5.28;;;;;;;;;;5088212;28;20036;-51
2022/01/03 04:53:03;;;;;;;8.10;5.28;;;;;;;;;;5088883;28;20058;-48
2022/01/03 04:55:29;;;;;;;7.93;5.10;;;;;;;;;;5088086;28;20028;-47
2022/01/03 04:57:55;;;;;;;9.07;4.88;;;;;;;;;;5086611;28;20020;-48
2022/01/03 05:00:21;;;;;;;6.68;4.65;;;;;;;;;;5087709;28;20028;-48
2022/01/03 05:02:49;;;;;;;7.13;5.00;;;;;;;;;;5089444;28;20027;-48
2022/01/03 05:05:15;;;;;;;8.35;5.80;;;;;;;;;;5089366;28;20032;-51
2022/01/03 05:07:41;;;;;;;7.60;5.10;;;;;;;;;;5099594;28;20051;-48
2022/01/03 05:10:07;;;;;;;9.02;5.45;;;;;;;;;;5092148;28;20552;-48
2022/01/03 05:12:34;;;;;;;6.70;4.97;;;;;;;;;;5087320;28;20126;-49
2022/01/03 05:15:00;;;;;;;6.90;4.97;;;;;;;;;;5095023;28;20031;-48
2022/01/03 05:17:29;;;;;;;8.18;4.90;;;;;;;;;;5099726;28;20503;-48
2022/01/03 05:19:55;;;;;;;7.18;4.80;;;;;;;;;;5089569;28;20024;-47
2022/01/03 05:22:21;;;;;;;8.48;5.13;;;;;;;;;;5088188;28;20022;-47
2022/01/03 05:24:47;;;;;;;7.55;5.15;;;;;;;;;;5088800;28;20111;-51
2022/01/03 05:27:13;;;;;;;6.70;4.63;;;;;;;;;;5088414;28;20059;-47
2022/01/03 05:29:39;;;;;;;7.10;4.43;;;;;;;;;;5095687;28;20031;-48
2022/01/03 05:32:05;;;;;;;8.13;4.57;;;;;;;;;;5100653;28;20063;-49
2022/01/03 05:34:32;;;;;;;7.57;4.75;;;;;;;;;;5088114;28;20157;-48
2022/01/03 05:36:58;;;;;;;8.63;4.95;;;;;;;;;;5079488;28;20028;-53
2022/01/03 05:39:24;;;;;;;7.65;5.15;;;;;;;;;;5085669;28;20025;-51
2022/01/03 05:41:50;;;;;;;7.05;4.95;;;;;;;;;;5079219;28;20387;-51
2022/01/03 05:44:16;;;;;;;7.15;4.90;;;;;;;;;;5069907;28;20500;-51
2022/01/03 05:46:42;;;;;;;6.68;5.10;;;;;;;;;;5080749;28;20541;-51
2022/01/03 05:49:08;;;;;;;6.95;4.90;;;;;;;;;;5092213;28;20459;-47
2022/01/03 05:51:34;;;;;;;7.05;5.10;;;;;;;;;;5091939;28;20062;-50
2022/01/03 05:54:01;;;;;;;7.57;4.90;;;;;;;;;;5087530;28;20028;-50
2022/01/03 05:56:27;;;;;;;7.13;5.00;;;;;;;;;;5086821;28;20506;-50
2022/01/03 05:58:53;;;;;;;8.13;5.38;;;;;;;;;;5089953;28;20027;-52
2022/01/03 06:01:21;;;;;;;8.55;5.25;;;;;;;;;;5107933;28;20140;-51
2022/01/03 06:03:48;;;;;;;7.95;5.20;;;;;;;;;;5108672;28;20755;-51
2022/01/03 06:08:40;;;;;;;7.95;5.55;;;;;;;;;;5100103;28;20071;-47
2022/01/03 06:11:06;;;;;;;8.00;5.38;;;;;;;;;;5089124;28;20394;-48
2022/01/03 06:13:32;;;;;;;8.15;5.35;;;;;;;;;;5086341;28;20487;-50
2022/01/03 06:15:59;;;;;;;8.88;5.88;;;;;;;;;;5087591;28;20409;-48
2022/01/03 06:18:25;;;;;;;7.68;5.38;;;;;;;;;;5086477;28;20051;-48
2022/01/03 06:20:51;;;;;;;7.82;5.55;;;;;;;;;;5089479;28;20027;-50
2022/01/03 06:23:19;;;;;;;9.23;6.22;;;;;;;;;;5087215;28;20107;-50
2022/01/03 06:25:45;;;;;;;10.18;6.80;;;;;;;;;;5087230;28;20020;-50
2022/01/03 06:28:12;;;;;;;8.68;5.57;;;;;;;;;;5086266;28;20028;-47
2022/01/03 06:30:38;;;;;;;8.90;6.07;;;;;;;;;;5099783;28;20223;-47
2022/01/03 06:33:05;;;;;;;9.45;5.85;;;;;;;;;;5103824;28;20047;-48
2022/01/03 06:35:32;;;;;;;8.65;5.80;;;;;;;;;;5086690;28;20475;-47
2022/01/03 06:37:58;;;;;;;8.75;5.55;;;;;;;;;;5082945;28;20039;-52
2022/01/03 06:40:25;;;;;;;8.52;5.60;;;;;;;;;;5092224;28;20087;-50
2022/01/03 06:42:51;;;;;;;9.70;6.15;;;;;;;;;;5086446;28;20046;-48
2022/01/03 06:45:17;;;;;;;10.07;6.43;;;;;;;;;;5086465;28;20409;-52
2022/01/03 06:47:44;;;;;;;9.30;6.53;;;;;;;;;;5087957;28;20494;-47
2022/01/03 06:50:10;;;;;;;10.60;6.22;;;;;;;;;;5087102;28;20032;-48
2022/01/03 06:52:36;;;;;;;9.93;6.38;;;;;;;;;;5087208;28;20432;-47
2022/01/03 06:55:03;;;;;;;10.15;6.50;;;;;;;;;;5084994;28;20081;-51
2022/01/03 06:57:30;;;;;;;10.32;7.03;;;;;;;;;;5085994;28;20578;-49
2022/01/03 06:59:56;;;;;;;14.45;7.90;;;;;;;;;;5086905;28;20028;-49
2022/01/03 07:02:22;;;;;;;14.20;7.70;;;;;;;;;;5086817;28;20020;-50
2022/01/03 07:04:48;;;;;;;11.10;6.85;;;;;;;;;;5085273;28;20028;-51
2022/01/03 07:07:14;;;;;;;12.15;8.07;;;;;;;;;;5087649;28;20498;-48
2022/01/03 07:09:40;;;;;;;12.60;8.15;;;;;;;;;;5086252;28;20398;-48
2022/01/03 07:12:07;;;;;;;11.00;7.22;;;;;;;;;;5086233;28;20392;-48
2022/01/03 07:19:50;;;;;;;12.23;7.53;;;;;;;;;;5092904;28;20053;-48
2022/01/03 07:22:16;;;;;;;8.85;5.55;;;;;;;;;;5087705;28;20138;-48
2022/01/03 07:24:42;;;;;;;8.18;5.53;;;;;;;;;;5089978;28;20058;-48
2022/01/03 07:27:10;;;;;;;7.68;4.95;;;;;;;;;;5088305;28;20032;-47
2022/01/03 07:29:36;;;;;;;7.05;4.88;;;;;;;;;;5081397;28;20412;-47
2022/01/03 07:32:02;;;;;;;7.10;4.82;;;;;;;;;;5073867;28;20543;-50
2022/01/03 07:34:28;;;;;;;6.53;4.07;;;;;;;;;;5066475;28;20503;-48
2022/01/03 07:36:54;;;;;;;6.25;4.13;;;;;;;;;;5082088;28;20036;-49
2022/01/03 07:39:21;;;;;;;7.57;4.53;;;;;;;;;;5084493;28;20027;-52
2022/01/03 07:41:47;;;;;;;6.88;4.47;;;;;;;;;;5086329;28;20028;-52
2022/01/03 07:44:13;;;;;;;6.68;4.07;;;;;;;;;;5087165;28;20028;-49
2022/01/03 07:46:39;;;;;;;8.82;5.55;;;;;;;;;;5086400;28;20082;-51
2022/01/03 07:49:05;;;;;;;9.02;6.18;;;;;;;;;;5103154;28;20059;-48
2022/01/03 07:51:32;;;;;;;11.23;6.68;;;;;;;;;;5106675;28;20077;-51
2022/01/03 07:53:59;;;;;;;7.53;5.05;;;;;;;;;;5110227;28;20035;-52
2022/01/03 07:56:26;;;;;;;8.27;5.13;;;;;;;;;;5088657;28;20389;-51
2022/01/03 07:58:52;;;;;;;8.80;5.60;;;;;;;;;;5103078;28;20028;-49
2022/01/03 08:01:18;;;;;;;8.10;5.32;;;;;;;;;;5109567;28;20031;-52
2022/01/03 08:03:44;;;;;;;8.55;5.03;;;;;;;;;;5100477;28;20028;-49
2022/01/03 08:06:10;;;;;;;7.40;5.20;;;;;;;;;;5099580;28;20035;-52
2022/01/03 08:08:37;;;;;;;8.45;5.18;;;;;;;;;;5089438;28;20078;-47
2022/01/03 08:11:04;;;;;;;8.60;5.38;;;;;;;;;;5088336;28;20477;-49
2022/01/03 08:13:30;;;;;;;8.95;5.30;;;;;;;;;;5089145;28;20533;-48
2022/01/03 08:15:56;;;;;;;6.93;4.57;;;;;;;;;;5073971;28;20024;-49
2022/01/03 08:18:22;;;;;;;8.88;5.53;;;;;;;;;;5084475;28;20024;-48
2022/01/03 08:20:50;;;;;;;7.15;4.63;;;;;;;;;;5088953;28;20450;-49
2022/01/03 08:23:16;;;;;;;6.32;4.20;;;;;;;;;;5087688;28;20023;-49
2022/01/03 08:25:42;;;;;;;6.43;4.43;;;;;;;;;;5103625;28;20016;-48
2022/01/03 08:28:09;;;;;;;8.15;5.30;;;;;;;;;;5069528;28;20483;-49
2022/01/03 08:30:35;;;;;;;7.90;5.22;;;;;;;;;;5097062;28;20460;-48
2022/01/03 08:33:01;;;;;;;6.68;4.85;;;;;;;;;;5096141;28;20024;-47
2022/01/03 08:35:27;;;;;;;6.93;5.05;;;;;;;;;;5089200;28;20046;-50
2022/01/03 08:37:56;;;;;;;5.80;4.40;;;;;;;;;;5089078;28;20036;-51
2022/01/03 08:40:22;;;;;;;7.40;4.80;;;;;;;;;;5086795;28;20062;-48
2022/01/03 08:42:48;;;;;;;6.28;4.80;;;;;;;;;;5086929;28;20032;-48
2022/01/03 08:45:14;;;;;;;7.53;4.57;;;;;;;;;;5089045;28;20123;-49
2022/01/03 08:47:40;;;;;;;9.60;5.93;;;;;;;;;;5088892;28;20413;-48
2022/01/03 08:50:07;;;;;;;12.32;7.38;;;;;;;;;;5087218;28;20074;-51
2022/01/03 08:52:33;;;;;;;14.82;8.68;;;;;;;;;;5080845;28;20526;-48
2022/01/03 08:55:00;;;;;;;15.43;8.88;;;;;;;;;;5075996;28;20058;-48
2022/01/03 08:57:26;;;;;;;12.18;7.45;;;;;;;;;;5082138;28;20035;-48
2022/01/03 08:59:52;;;;;;;13.35;8.27;;;;;;;;;;5070879;28;20506;-50
2022/01/03 09:02:19;;;;;;;11.65;7.35;;;;;;;;;;5095585;28;20028;-51
2022/01/03 09:04:46;;;;;;;11.30;6.60;;;;;;;;;;5108618;28;20399;-48
2022/01/03 09:07:12;;;;;;;9.35;5.90;;;;;;;;;;5091518;28;20449;-52
2022/01/03 09:09:38;;;;;;;7.50;5.13;;;;;;;;;;5088219;28;20612;-48
2022/01/03 09:12:06;;;;;;;6.28;4.10;;;;;;;;;;5098630;28;20031;-51
2022/01/03 09:14:33;;;;;;;7.85;5.28;;;;;;;;;;5090606;28;20024;-48
2022/01/03 09:16:59;;;;;;;7.57;5.18;;;;;;;;;;5088330;28;20129;-51
2022/01/03 09:19:26;;;;;;;6.10;4.22;;;;;;;;;;5087763;28;20048;-49
2022/01/03 09:22:06;;;;;;;8.48;5.25;;;;;;;;;;5093581;28;20019;-50
2022/01/03 09:24:44;;;;;;;7.75;5.32;;;;;;;;;;5106017;28;20023;-51
2022/01/03 09:29:58;;;;;;;8.98;6.03;;;;;;;;;;5088137;28;20133;-51
2022/01/03 09:32:24;;;;;;;9.48;5.97;;;;;;;;;;5096448;28;20126;-48
2022/01/03 09:34:50;;;;;;;8.82;5.65;;;;;;;;;;5087850;28;20024;-53
2022/01/03 09:37:20;;;;;;;7.93;5.50;;;;;;;;;;5088071;28;20024;-51
2022/01/03 09:39:50;;;;;;;9.30;5.65;;;;;;;;;;5070248;28;20517;-52
2022/01/03 09:42:19;;;;;;;8.20;5.20;;;;;;;;;;5079693;28;20028;-52
2022/01/03 09:44:46;;;;;;;7.55;5.00;;;;;;;;;;5087813;28;20028;-49
2022/01/03 09:47:16;;;;;;;9.40;5.82;;;;;;;;;;5088000;28;20017;-51
2022/01/03 09:49:43;;;;;;;6.93;4.97;;;;;;;;;;5069459;28;20378;-52
2022/01/03 09:52:09;;;;;;;8.50;5.45;;;;;;;;;;5093852;28;20035;-51
2022/01/03 09:54:36;;;;;;;6.93;4.82;;;;;;;;;;5086252;28;20038;-52
2022/01/03 09:57:04;;;;;;;5.88;4.25;;;;;;;;;;5086313;28;20078;-50
2022/01/03 09:59:30;;;;;;;4.55;3.63;;;;;;;;;;5086003;28;20028;-51
2022/01/03 10:01:58;;;;;;;6.00;4.22;;;;;;;;;;5087268;28;20031;-49
2022/01/03 10:04:24;;;;;;;7.55;4.53;;;;;;;;;;5085672;28;20884;-51
2022/01/03 10:06:51;;;;;;;7.32;4.50;;;;;;;;;;5099677;28;20467;-50
2022/01/03 10:09:20;;;;;;;6.88;4.05;;;;;;;;;;5093697;28;20047;-52
2022/01/03 10:11:47;;;;;;;7.03;4.10;;;;;;;;;;5074972;28;20116;-51
2022/01/03 10:14:13;;;;;;;5.32;3.67;;;;;;;;;;5081538;28;20043;-48
2022/01/03 10:16:40;;;;;;;6.57;4.43;;;;;;;;;;5086099;28;20100;-51
2022/01/03 10:19:06;;;;;;;5.80;3.92;;;;;;;;;;5076021;28;20468;-51
2022/01/03 10:21:37;;;;;;;5.43;3.50;;;;;;;;;;5082650;28;20027;-52
2022/01/03 10:24:04;;;;;;;3.70;2.55;;;;;;;;;;5086180;28;20035;-51
2022/01/03 10:26:30;;;;;;;4.47;2.97;;;;;;;;;;5089066;28;20024;-51
2022/01/03 10:29:16;;;;;;;3.28;2.35;;;;;;;;;;5087719;28;20032;-51
2022/01/03 10:31:43;;;;;;;3.95;2.50;;;;;;;;;;5089105;28;20024;-51
2022/01/03 10:34:11;;;;;;;3.83;2.35;;;;;;;;;;5086015;28;20047;-51
2022/01/03 10:36:37;;;;;;;3.30;2.20;;;;;;;;;;5083676;28;20127;-49
2022/01/03 10:39:14;;;;;;;2.70;2.13;;;;;;;;;;5085338;28;20028;-48
2022/01/03 10:41:40;;;;;;;3.42;2.50;;;;;;;;;;5085085;28;20550;-49
2022/01/03 10:44:07;;;;;;;3.50;2.88;;;;;;;;;;5085884;28;20112;-49
2022/01/03 10:46:35;;;;;;;3.53;2.60;;;;;;;;;;5085892;28;20111;-50
2022/01/03 10:49:21;;;;;;;4.53;2.95;;;;;;;;;;5086546;28;20037;-49
2022/01/03 10:51:47;;;;;;;5.15;3.40;;;;;;;;;;5094311;28;20029;-48
2022/01/03 10:54:16;;;;;;;5.38;3.90;;;;;;;;;;5086773;28;20027;-49
2022/01/03 10:56:48;;;;;;;4.72;3.35;;;;;;;;;;5084603;28;20107;-51
2022/01/03 10:59:14;;;;;;;5.88;3.65;;;;;;;;;;5082809;28;20026;-51
2022/01/03 11:01:41;;;;;;;7.72;4.40;;;;;;;;;;5085498;28;20029;-52
2022/01/03 11:04:08;;;;;;;5.95;3.90;;;;;;;;;;5089785;28;20024;-49
2022/01/03 11:11:46;;;;;;;6.18;3.88;;;;;;;;;;5091382;28;20040;-51
2022/01/03 11:14:30;;;;;;;4.68;3.53;;;;;;;;;;5086498;28;20042;-51
2022/01/03 11:16:57;;;;;;;5.43;3.55;;;;;;;;;;5084315;28;20073;-48
2022/01/03 11:19:39;;;;;;;5.13;3.40;;;;;;;;;;5087315;28;20031;-50
2022/01/03 11:22:05;;;;;;;3.65;2.85;;;;;;;;;;5071016;28;20028;-51
2022/01/03 11:24:31;;;;;;;4.07;2.78;;;;;;;;;;5083963;28;20483;-52
2022/01/03 11:27:00;;;;;;;3.40;2.58;;;;;;;;;;5084931;28;20035;-48
2022/01/03 11:29:30;;;;;;;3.90;2.65;;;;;;;;;;5086169;28;20072;-52
2022/01/03 11:31:59;;;;;;;4.38;2.60;;;;;;;;;;5089732;28;20028;-50
2022/01/03 11:34:25;;;;;;;3.97;2.75;;;;;;;;;;5089520;28;20032;-49
2022/01/03 11:36:52;;;;;;;3.88;2.60;;;;;;;;;;5089254;28;20119;-48
2022/01/03 11:39:22;;;;;;;3.72;3.00;;;;;;;;;;5086246;28;20032;-52
2022/01/03 11:41:50;;;;;;;4.43;2.80;;;;;;;;;;5085275;28;20016;-51
2022/01/03 11:44:16;;;;;;;4.53;3.05;;;;;;;;;;5096437;28;20402;-52
2022/01/03 11:46:43;;;;;;;4.53;3.25;;;;;;;;;;5086835;28;20202;-49
2022/01/03 11:49:11;;;;;;;5.20;3.10;;;;;;;;;;5095505;28;20042;-51
2022/01/03 11:51:38;;;;;;;3.22;2.80;;;;;;;;;;5087475;28;20030;-48
2022/01/03 11:54:06;;;;;;;4.20;3.13;;;;;;;;;;5089113;28;20043;-49
2022/01/03 11:56:36;;;;;;;5.90;3.60;;;;;;;;;;5088338;28;20035;-51
2022/01/03 12:04:26;;;;;;;3.30;2.33;;;;;;;;;;5097386;28;20473;-52
2022/01/03 12:07:02;;;;;;;4.32;3.00;;;;;;;;;;5096093;28;20024;-49
2022/01/03 12:09:32;;;;;;;5.93;3.05;;;;;;;;;;5109169;28;20437;-50
2022/01/03 12:11:58;;;;;;;4.00;2.75;;;;;;;;;;5087196;28;20371;-49
2022/01/03 12:14:25;;;;;;;4.60;3.28;;;;;;;;;;5070244;28;20077;-52
2022/01/03 12:16:51;;;;;;;3.60;2.67;;;;;;;;;;5087907;28;20027;-51
2022/01/03 12:19:29;;;;;;;2.95;2.40;;;;;;;;;;5088423;28;20352;-52
2022/01/03 12:21:57;;;;;;;3.25;2.30;;;;;;;;;;5088054;28;20039;-49
2022/01/03 12:24:41;;;;;;;3.00;2.35;;;;;;;;;;5088226;28;20032;-49
2022/01/03 12:27:13;;;;;;;2.88;1.98;;;;;;;;;;5088198;28;20487;-51
2022/01/03 12:29:55;;;;;;;3.55;2.30;;;;;;;;;;5087296;28;20042;-52
2022/01/03 12:32:24;;;;;;;3.83;2.28;;;;;;;;;;5086255;28;20048;-53
2022/01/03 12:35:09;;;;;;;2.80;1.85;;;;;;;;;;5081660;28;20433;-54
2022/01/03 12:37:36;;;;;;;2.80;2.20;;;;;;;;;;5087986;28;20034;-52
2022/01/03 12:40:02;;;;;;;2.40;1.80;;;;;;;;;;5090673;28;20028;-51
2022/01/03 12:42:50;;;;;;;2.00;1.80;;;;;;;;;;5085002;28;20027;-51
2022/01/03 12:45:17;;;;;;;3.55;2.28;;;;;;;;;;5077496;28;20032;-50
2022/01/03 12:47:43;;;;;;;2.47;1.80;;;;;;;;;;5083978;28;20388;-52
2022/01/03 12:50:28;;;;;;;2.80;1.95;;;;;;;;;;5078910;28;20122;-52
2022/01/03 12:52:59;;;;;;;4.30;2.47;;;;;;;;;;5083525;28;20255;-50
2022/01/03 12:55:37;;;;;;;3.30;2.40;;;;;;;;;;5085420;28;20294;-53
2022/01/03 12:58:18;;;;;;;2.75;2.30;;;;;;;;;;5089813;28;20084;-49
2022/01/03 13:00:48;;;;;;;3.78;2.42;;;;;;;;;;5085206;28;20024;-50
2022/01/03 13:03:21;;;;;;;5.35;2.75;;;;;;;;;;5085015;28;20181;-51
2022/01/03 13:06:06;;;;;;;3.58;2.60;;;;;;;;;;5087648;28;20046;-53
2022/01/03 13:08:32;;;;;;;;;;;;;;;;;;5086232;28;20060;-50
2022/01/03 13:11:01;;;;;;;2.60;2.00;;;;;;;;;;5086349;28;20346;-51
2022/01/03 13:13:28;;;;;;;2.70;1.98;;;;;;;;;;5086391;28;20094;-52
2022/01/03 13:15:55;;;;;;;3.10;2.05;;;;;;;;;;5085992;28;20110;-53
2022/01/03 13:18:21;;;;;;;3.33;2.45;;;;;;;;;;5086031;28;20146;-50
2022/01/03 13:20:59;;;;;;;4.40;2.67;;;;;;;;;;5084821;28;20024;-50
2022/01/03 13:23:25;;;;;;;4.70;2.88;;;;;;;;;;5102115;28;20051;-53
2022/01/03 13:26:01;;;;;;;3.17;2.33;;;;;;;;;;5085629;28;20017;-54
2022/01/03 13:28:28;;;;;;;3.95;2.60;;;;;;;;;;5085525;28;20090;-53
2022/01/03 13:31:00;;;;;;;4.10;2.40;;;;;;;;;;5085666;28;20099;-50
2022/01/03 13:33:26;;;;;;;3.22;2.30;;;;;;;;;;5085373;28;20530;-52
2022/01/03 13:35:59;;;;;;;3.90;2.30;;;;;;;;;;5085200;28;20031;-52
2022/01/03 13:38:25;;;;;;;4.05;2.45;;;;;;;;;;5085243;28;20546;-53
2022/01/03 13:40:51;;;;;;;3.50;2.45;;;;;;;;;;5085683;28;20094;-50
2022/01/03 13:43:19;;;;;;;4.07;2.45;;;;;;;;;;5105558;28;20027;-53
2022/01/03 13:51:02;;;;;;;3.95;2.40;;;;;;;;;;5065830;28;20042;-52
2022/01/03 13:53:28;;;;;;;2.97;2.10;;;;;;;;;;5084479;28;20445;-52
2022/01/03 13:55:56;;;;;;;2.85;2.13;;;;;;;;;;5083166;28;20012;-50
2022/01/03 13:58:24;;;;;;;2.90;2.00;;;;;;;;;;5079613;28;20403;-51
2022/01/03 14:00:55;;;;;;;3.28;2.22;;;;;;;;;;5083287;28;20016;-52
2022/01/03 14:03:25;;;;;;;3.95;2.53;;;;;;;;;;5097447;28;20451;-50
2022/01/03 14:06:11;;;;;;;3.33;2.35;;;;;;;;;;5089206;28;20020;-49
2022/01/03 14:08:40;;;;;;;3.00;2.20;;;;;;;;;;5083039;28;20067;-51
2022/01/03 14:11:11;;;;;;;3.92;2.80;;;;;;;;;;5082508;28;20046;-52
2022/01/03 14:13:38;;;;;;;3.75;2.50;;;;;;;;;;5077624;28;20055;-52
2022/01/03 14:16:07;;;;;;;3.95;2.50;;;;;;;;;;5079745;28;20483;-51
2022/01/03 14:18:34;;;;;;;3.47;2.60;;;;;;;;;;5097892;28;20042;-53
2022/01/03 14:21:09;;;;;;;4.68;3.13;;;;;;;;;;5096886;28;20020;-53
2022/01/03 14:23:37;;;;;;;3.63;2.70;;;;;;;;;;5085841;28;20220;-52
2022/01/03 14:26:13;;;;;;;6.05;3.17;;;;;;;;;;5085876;28;20016;-52
2022/01/03 14:28:39;;;;;;;4.05;2.92;;;;;;;;;;5085875;28;20047;-50
2022/01/03 14:31:06;;;;;;;4.28;2.70;;;;;;;;;;5086291;28;20020;-52
2022/01/03 14:33:34;;;;;;;3.47;2.70;;;;;;;;;;5086684;28;20035;-53
2022/01/03 14:36:10;;;;;;;5.20;2.72;;;;;;;;;;5085774;28;20067;-52
2022/01/03 14:38:38;;;;;;;4.95;2.90;;;;;;;;;;5092009;28;20039;-52
2022/01/03 14:41:04;;;;;;;3.50;2.60;;;;;;;;;;5093144;28;20527;-53
2022/01/03 14:43:30;;;;;;;3.45;2.30;;;;;;;;;;5088026;28;20032;-53
2022/01/03 14:46:07;;;;;;;2.97;2.30;;;;;;;;;;5096653;28;20028;-49
2022/01/03 14:48:33;;;;;;;3.30;2.58;;;;;;;;;;5085664;28;20032;-53
2022/01/03 14:51:09;;;;;;;3.30;2.58;;;;;;;;;;5086258;28;20024;-52
2022/01/03 14:53:36;;;;;;;4.47;3.00;;;;;;;;;;5103287;28;20101;-50
2022/01/03 14:56:02;;;;;;;4.85;3.28;;;;;;;;;;5092941;28;20028;-51
2022/01/03 14:58:28;;;;;;;5.43;3.10;;;;;;;;;;5088536;28;20024;-49
2022/01/03 15:00:54;;;;;;;5.38;3.33;;;;;;;;;;5093909;28;20108;-51
2022/01/03 15:03:23;;;;;;;5.18;3.53;;;;;;;;;;5097686;28;20024;-51
2022/01/03 15:05:50;;;;;;;4.15;2.90;;;;;;;;;;5100864;28;20028;-50
2022/01/03 15:08:16;;;;;;;4.35;2.65;;;;;;;;;;5106550;28;20490;-49
2022/01/03 15:10:43;;;;;;;4.57;3.22;;;;;;;;;;5096819;28;20417;-53
2022/01/03 15:13:10;;;;;;;5.13;3.35;;;;;;;;;;5087244;28;20059;-52
2022/01/03 15:15:37;;;;;;;6.00;3.50;;;;;;;;;;5096042;28;20081;-52
2022/01/03 15:18:03;;;;;;;5.25;3.20;;;;;;;;;;5093947;28;20067;-53